createdAt,value
2022-09-27T00:02:33.202Z,81.72
2022-09-27T00:05:38.883Z,81.62
2022-09-27T00:08:44.602Z,81.90
2022-09-27T00:11:50.440Z,81.85
2022-09-27T00:14:55.857Z,81.73
2022-09-27T00:18:01.212Z,81.61
2022-09-27T00:21:12.135Z,81.74
2022-09-27T00:24:19.633Z,81.62
2022-09-27T00:27:26.289Z,81.85
2022-09-27T00:30:31.739Z,81.92
2022-09-27T00:33:37.057Z,81.85
2022-09-27T00:36:42.439Z,81.97
2022-09-27T00:39:47.801Z,81.88
2022-09-27T00:42:53.146Z,81.82
2022-09-27T00:46:03.886Z,81.67
2022-09-27T00:49:18.677Z,81.85
2022-09-27T00:52:28.663Z,81.70
2022-09-27T00:55:39.631Z,81.58
2022-09-27T00:58:49.921Z,81.59
2022-09-27T01:01:56.338Z,81.63
2022-09-27T01:05:02.443Z,81.66
2022-09-27T01:08:07.756Z,81.50
2022-09-27T01:11:36.916Z,81.66
2022-09-27T01:14:56.490Z,81.68
2022-09-27T01:18:22.344Z,81.68
2022-09-27T01:21:50.580Z,81.77
2022-09-27T01:25:14.137Z,81.69
2022-09-27T01:28:32.792Z,81.61
2022-09-27T01:31:44.352Z,81.46
2022-09-27T01:35:01.667Z,81.70
2022-09-27T01:38:19.214Z,81.68
2022-09-27T01:41:34.472Z,81.82
2022-09-27T01:44:46.535Z,81.73
2022-09-27T01:47:56.342Z,81.46
2022-09-27T01:51:08.012Z,81.52
2022-09-27T01:54:18.503Z,81.64
2022-09-27T01:57:28.689Z,81.73
2022-09-27T02:00:34.984Z,81.58
2022-09-27T02:03:42.057Z,81.65
2022-09-27T02:06:54.132Z,81.53
2022-09-27T02:10:03.957Z,81.58
2022-09-27T02:13:19.705Z,81.57
2022-09-27T02:16:35.169Z,81.52
2022-09-27T02:19:52.362Z,81.22
2022-09-27T02:23:04.613Z,81.33
2022-09-27T02:26:17.620Z,81.28
2022-09-27T02:29:29.203Z,81.40
2022-09-27T02:32:34.725Z,81.33
2022-09-27T02:35:40.087Z,81.11
2022-09-27T02:38:46.059Z,81.28
2022-09-27T02:41:52.129Z,81.28
2022-09-27T02:44:57.779Z,81.37
2022-09-27T02:48:13.129Z,81.29
2022-09-27T02:51:33.664Z,81.29
2022-09-27T02:54:53.554Z,81.37
2022-09-27T02:58:12.772Z,81.54
2022-09-27T03:01:26.247Z,81.43
2022-09-27T03:04:38.588Z,81.33
2022-09-27T03:07:44.281Z,81.23
2022-09-27T03:10:49.592Z,81.32
2022-09-27T03:14:08.377Z,81.45
2022-09-27T03:17:14.346Z,81.76
2022-09-27T03:20:19.895Z,81.66
2022-09-27T03:23:25.372Z,81.60
2022-09-27T03:26:30.796Z,81.66
2022-09-27T03:29:36.143Z,81.67
2022-09-27T03:32:45.291Z,81.64
2022-09-27T03:35:50.584Z,81.66
2022-09-27T03:38:56.394Z,81.64
2022-09-27T03:42:01.693Z,81.56
2022-09-27T03:45:08.388Z,81.39
2022-09-27T03:48:14.470Z,81.48
2022-09-27T03:51:20.742Z,81.55
2022-09-27T03:54:25.268Z,81.38
2022-09-27T03:57:32.063Z,81.42
2022-09-27T04:00:37.379Z,81.43
2022-09-27T04:03:42.824Z,81.31
2022-09-27T04:06:48.141Z,81.20
2022-09-27T04:09:53.452Z,81.44
2022-09-27T04:12:58.971Z,81.33
2022-09-27T04:16:04.844Z,81.29
2022-09-27T04:19:10.991Z,81.27
2022-09-27T04:22:15.930Z,81.20
2022-09-27T04:25:21.283Z,81.53
2022-09-27T04:28:28.056Z,81.36
2022-09-27T04:31:33.488Z,81.38
2022-09-27T04:34:56.600Z,81.22
2022-09-27T04:38:02.077Z,81.56
2022-09-27T04:41:07.835Z,81.24
2022-09-27T04:44:13.123Z,81.42
2022-09-27T04:47:21.149Z,81.30
2022-09-27T04:50:26.468Z,81.18
2022-09-27T04:53:32.327Z,81.54
2022-09-27T04:56:37.675Z,81.48
2022-09-27T04:59:43.116Z,81.51
2022-09-27T05:02:49.433Z,81.43
2022-09-27T05:05:55.535Z,81.44
2022-09-27T05:09:00.974Z,81.56
2022-09-27T05:12:07.865Z,81.37
2022-09-27T05:15:13.841Z,81.57
2022-09-27T05:18:19.153Z,81.43
2022-09-27T05:21:24.436Z,81.50
2022-09-27T05:24:30.476Z,81.53
2022-09-27T05:27:35.891Z,81.59
2022-09-27T05:30:41.249Z,81.66
2022-09-27T05:33:46.586Z,81.75
2022-09-27T05:36:52.069Z,81.71
2022-09-27T05:39:57.358Z,81.64
2022-09-27T05:43:02.648Z,81.89
2022-09-27T05:46:08.364Z,81.68
2022-09-27T05:49:13.741Z,82.11
2022-09-27T05:52:20.265Z,82.15
2022-09-27T05:55:27.056Z,82.17
2022-09-27T05:58:32.401Z,81.96
2022-09-27T06:01:37.828Z,81.98
2022-09-27T06:04:43.223Z,82.17
2022-09-27T06:07:49.705Z,82.26
2022-09-27T06:11:04.401Z,82.29
2022-09-27T06:14:09.910Z,82.47
2022-09-27T06:17:15.220Z,82.58
2022-09-27T06:20:20.893Z,82.90
2022-09-27T06:23:26.168Z,83.20
2022-09-27T06:26:31.997Z,83.51
2022-09-27T06:29:37.669Z,83.57
2022-09-27T06:32:42.998Z,83.67
2022-09-27T06:35:50.092Z,83.63
2022-09-27T06:38:55.389Z,83.75
2022-09-27T06:42:00.755Z,83.95
2022-09-27T06:45:07.419Z,84.14
2022-09-27T06:48:14.610Z,84.20
2022-09-27T06:51:20.322Z,84.37
2022-09-27T06:54:25.633Z,84.51
2022-09-27T06:57:48.941Z,84.70
2022-09-27T07:00:55.344Z,84.97
2022-09-27T07:04:00.757Z,85.05
2022-09-27T07:07:06.438Z,85.16
2022-09-27T07:10:12.656Z,85.03
2022-09-27T07:13:17.953Z,85.39
2022-09-27T07:16:23.335Z,85.45
2022-09-27T07:19:28.733Z,85.64
2022-09-27T07:22:34.093Z,85.53
2022-09-27T07:25:39.392Z,85.78
2022-09-27T07:28:45.195Z,85.70
2022-09-27T07:31:50.481Z,85.90
2022-09-27T07:34:55.775Z,85.97
2022-09-27T07:38:01.168Z,86.19
2022-09-27T07:41:11.053Z,86.44
2022-09-27T07:44:16.664Z,86.38
2022-09-27T07:47:24.161Z,86.36
2022-09-27T07:50:30.276Z,86.76
2022-09-27T07:53:34.183Z,86.71
2022-09-27T07:56:39.570Z,86.87
2022-09-27T07:59:45.345Z,86.92
2022-09-27T08:02:50.667Z,87.00
2022-09-27T08:05:56.001Z,87.26
2022-09-27T08:09:01.915Z,87.19
2022-09-27T08:12:07.528Z,86.98
2022-09-27T08:15:13.480Z,87.13
2022-09-27T08:18:22.035Z,87.14
2022-09-27T08:21:27.492Z,87.00
2022-09-27T08:24:32.842Z,86.67
2022-09-27T08:27:38.192Z,86.60
2022-09-27T08:30:43.497Z,86.49
2022-09-27T08:33:51.895Z,86.38
2022-09-27T08:36:57.355Z,86.58
2022-09-27T08:40:03.108Z,86.54
2022-09-27T08:43:18.994Z,86.38
2022-09-27T08:46:37.337Z,86.12
2022-09-27T08:49:46.968Z,86.30
2022-09-27T08:52:57.792Z,85.96
2022-09-27T08:56:04.408Z,86.21
2022-09-27T08:59:21.206Z,86.23
2022-09-27T09:02:27.433Z,86.23
2022-09-27T09:05:35.554Z,86.15
2022-09-27T09:08:52.374Z,85.97
2022-09-27T09:12:24.507Z,85.55
2022-09-27T09:15:54.514Z,85.47
2022-09-27T09:19:15.001Z,85.32
2022-09-27T09:22:43.491Z,84.81
2022-09-27T09:25:57.798Z,84.88
2022-09-27T09:29:23.997Z,84.83
2022-09-27T09:32:45.728Z,84.74
2022-09-27T09:35:59.183Z,84.29
2022-09-27T09:39:13.174Z,84.29
2022-09-27T09:42:26.442Z,84.31
2022-09-27T09:45:35.075Z,84.14
2022-09-27T09:48:46.696Z,83.76
2022-09-27T09:51:57.095Z,83.71
2022-09-27T09:55:08.468Z,83.41
2022-09-27T09:58:25.308Z,83.16
2022-09-27T10:01:35.784Z,82.85
2022-09-27T10:04:41.226Z,82.82
2022-09-27T10:07:48.356Z,82.38
2022-09-27T10:10:53.692Z,82.20
2022-09-27T10:13:59.084Z,81.74
2022-09-27T10:17:11.088Z,81.51
2022-09-27T10:20:27.450Z,81.24
2022-09-27T10:23:33.099Z,80.81
2022-09-27T10:26:40.857Z,80.28
2022-09-27T10:29:46.157Z,80.31
2022-09-27T10:32:57.055Z,80.04
2022-09-27T10:36:03.864Z,79.98
2022-09-27T10:39:21.928Z,79.42
2022-09-27T10:42:36.511Z,79.21
2022-09-27T10:45:42.001Z,78.70
2022-09-27T10:48:47.415Z,78.48
2022-09-27T10:51:56.506Z,77.82
2022-09-27T10:55:08.189Z,77.35
2022-09-27T10:58:22.024Z,77.03
2022-09-27T11:01:28.928Z,76.52
2022-09-27T11:04:37.257Z,76.56
2022-09-27T11:08:24.401Z,76.31
2022-09-27T11:11:30.902Z,75.89
2022-09-27T11:14:37.167Z,75.75
2022-09-27T11:17:52.162Z,75.52
2022-09-27T11:21:09.547Z,75.65
2022-09-27T11:24:27.026Z,75.28
2022-09-27T11:27:46.120Z,74.77
2022-09-27T11:31:04.014Z,74.18
2022-09-27T11:34:32.147Z,74.12
2022-09-27T11:37:49.178Z,74.16
2022-09-27T11:41:12.077Z,73.55
2022-09-27T11:44:33.806Z,73.37
2022-09-27T11:47:51.925Z,72.75
2022-09-27T11:51:11.754Z,72.61
2022-09-27T11:54:34.264Z,72.54
2022-09-27T11:57:44.679Z,72.07
2022-09-27T12:01:08.369Z,71.23
2022-09-27T12:04:33.727Z,70.94
2022-09-27T12:07:43.532Z,71.08
2022-09-27T12:10:54.816Z,70.61
2022-09-27T12:14:03.735Z,70.46
2022-09-27T12:17:14.468Z,70.46
2022-09-27T12:20:26.119Z,70.18
2022-09-27T12:23:40.993Z,70.31
2022-09-27T12:26:48.510Z,69.90
2022-09-27T12:29:56.690Z,69.86
2022-09-27T12:33:09.831Z,69.75
2022-09-27T12:36:21.163Z,69.62
2022-09-27T12:39:31.429Z,69.16
2022-09-27T12:42:42.670Z,69.00
2022-09-27T12:46:02.205Z,69.07
2022-09-27T12:49:14.482Z,68.62
2022-09-27T12:52:25.770Z,68.83
2022-09-27T12:55:53.715Z,68.95
2022-09-27T12:59:18.887Z,68.60
2022-09-27T13:03:10.997Z,68.36
2022-09-27T13:06:40.224Z,67.98
2022-09-27T13:10:15.979Z,68.22
2022-09-27T13:13:26.407Z,67.79
2022-09-27T13:16:32.625Z,67.55
2022-09-27T13:19:44.227Z,67.95
2022-09-27T13:22:50.551Z,67.70
2022-09-27T13:25:58.266Z,67.23
2022-09-27T13:29:05.138Z,67.40
2022-09-27T13:32:23.413Z,67.10
2022-09-27T13:35:30.042Z,67.14
2022-09-27T13:38:36.326Z,67.33
2022-09-27T13:42:05.002Z,67.19
2022-09-27T13:45:24.321Z,67.07
2022-09-27T13:48:40.492Z,67.37
2022-09-27T13:51:51.059Z,67.39
2022-09-27T13:54:59.790Z,67.55
2022-09-27T13:58:13.961Z,67.41
2022-09-27T14:01:28.570Z,67.53
2022-09-27T14:04:42.454Z,67.49
2022-09-27T14:07:52.030Z,67.74
2022-09-27T14:10:59.938Z,67.54
2022-09-27T14:14:07.713Z,67.67
2022-09-27T14:17:14.643Z,67.79
2022-09-27T14:20:47.274Z,67.72
2022-09-27T14:23:53.907Z,67.70
2022-09-27T14:27:17.466Z,67.71
2022-09-27T14:30:27.879Z,67.79
2022-09-27T14:33:35.533Z,68.05
2022-09-27T14:37:02.276Z,68.03
2022-09-27T14:40:20.636Z,67.99
2022-09-27T14:43:27.157Z,68.22
2022-09-27T14:46:34.527Z,68.43
2022-09-27T14:49:50.129Z,68.59
2022-09-27T14:52:57.793Z,68.57
2022-09-27T14:56:08.395Z,68.65
2022-09-27T14:59:18.947Z,68.85
2022-09-27T15:02:26.598Z,68.94
2022-09-27T15:05:34.884Z,68.95
2022-09-27T15:08:41.886Z,69.17
2022-09-27T15:11:52.989Z,69.33
2022-09-27T15:14:59.607Z,69.18
2022-09-27T15:18:20.471Z,69.10
2022-09-27T15:21:35.093Z,69.20
2022-09-27T15:24:45.623Z,69.32
2022-09-27T15:27:54.803Z,69.43
2022-09-27T15:31:01.773Z,69.40
2022-09-27T15:34:08.184Z,69.46
2022-09-27T15:37:28.427Z,69.46
2022-09-27T15:41:02.221Z,69.53
2022-09-27T15:44:36.591Z,69.47
2022-09-27T15:47:48.637Z,69.47
2022-09-27T15:50:55.130Z,69.64
2022-09-27T15:54:01.283Z,69.79
2022-09-27T15:57:12.635Z,69.71
2022-09-27T16:00:20.946Z,69.86
2022-09-27T16:03:28.175Z,69.74
2022-09-27T16:06:34.361Z,69.81
2022-09-27T16:09:40.783Z,69.94
2022-09-27T16:12:46.718Z,69.96
2022-09-27T16:15:53.450Z,70.12
2022-09-27T16:18:59.701Z,69.99
2022-09-27T16:22:05.695Z,70.42
2022-09-27T16:25:10.515Z,70.53
2022-09-27T16:28:16.598Z,70.64
2022-09-27T16:31:21.274Z,70.54
2022-09-27T16:34:27.869Z,70.48
2022-09-27T16:37:34.913Z,70.67
2022-09-27T16:40:41.039Z,70.80
2022-09-27T16:43:47.189Z,70.77
2022-09-27T16:46:53.317Z,70.88
2022-09-27T16:50:17.024Z,71.04
2022-09-27T16:53:23.190Z,71.44
2022-09-27T16:56:32.341Z,71.41
2022-09-27T16:59:38.795Z,71.51
2022-09-27T17:02:47.234Z,71.34
2022-09-27T17:05:53.482Z,71.45
2022-09-27T17:08:58.157Z,71.63
2022-09-27T17:12:07.595Z,71.59
2022-09-27T17:15:17.352Z,71.67
2022-09-27T17:18:23.345Z,71.85
2022-09-27T17:21:29.499Z,71.88
2022-09-27T17:24:33.982Z,71.95
2022-09-27T17:27:40.103Z,72.14
2022-09-27T17:30:45.448Z,72.09
2022-09-27T17:33:57.412Z,71.94
2022-09-27T17:37:05.182Z,72.13
2022-09-27T17:40:12.499Z,72.31
2022-09-27T17:43:18.526Z,72.44
2022-09-27T17:46:26.028Z,72.48
2022-09-27T17:49:49.562Z,72.45
2022-09-27T17:52:57.454Z,72.53
2022-09-27T17:56:05.579Z,72.73
2022-09-27T17:59:13.477Z,72.81
2022-09-27T18:02:20.382Z,72.77
2022-09-27T18:05:26.583Z,72.93
2022-09-27T18:08:32.409Z,72.95
2022-09-27T18:11:39.313Z,73.10
2022-09-27T18:14:45.957Z,73.08
2022-09-27T18:17:58.299Z,73.17
2022-09-27T18:21:06.210Z,73.00
2022-09-27T18:24:14.405Z,73.10
2022-09-27T18:27:21.327Z,73.10
2022-09-27T18:30:27.426Z,73.35
2022-09-27T18:33:32.201Z,73.16
2022-09-27T18:36:41.102Z,73.33
2022-09-27T18:39:47.222Z,73.52
2022-09-27T18:42:51.654Z,73.71
2022-09-27T18:46:17.812Z,73.68
2022-09-27T18:49:32.989Z,73.72
2022-09-27T18:52:40.077Z,73.73
2022-09-27T18:55:44.474Z,73.76
2022-09-27T18:58:51.898Z,73.86
2022-09-27T19:01:58.033Z,73.91
2022-09-27T19:05:03.375Z,73.96
2022-09-27T19:08:09.504Z,74.10
2022-09-27T19:11:14.377Z,74.15
2022-09-27T19:14:23.542Z,74.07
2022-09-27T19:17:29.635Z,74.17
2022-09-27T19:20:35.750Z,74.30
2022-09-27T19:23:44.906Z,74.38
2022-09-27T19:26:53.811Z,74.47
2022-09-27T19:30:00.411Z,74.46
2022-09-27T19:33:06.618Z,74.61
2022-09-27T19:36:14.666Z,74.58
2022-09-27T19:39:21.053Z,74.73
2022-09-27T19:42:27.100Z,74.87
2022-09-27T19:45:35.598Z,74.99
2022-09-27T19:48:42.036Z,74.82
2022-09-27T19:51:48.005Z,75.00
2022-09-27T19:54:54.045Z,75.09
2022-09-27T19:58:00.478Z,75.18
2022-09-27T20:01:08.651Z,75.03
2022-09-27T20:04:16.026Z,75.23
2022-09-27T20:07:22.123Z,75.26
2022-09-27T20:10:26.600Z,75.34
2022-09-27T20:13:33.764Z,75.33
2022-09-27T20:16:41.494Z,75.28
2022-09-27T20:19:47.838Z,75.46
2022-09-27T20:22:53.998Z,75.65
2022-09-27T20:26:05.141Z,75.56
2022-09-27T20:29:11.983Z,75.60
2022-09-27T20:32:33.624Z,75.65
2022-09-27T20:35:39.830Z,75.86
2022-09-27T20:38:47.826Z,75.85
2022-09-27T20:41:54.092Z,75.77
2022-09-27T20:45:00.433Z,75.99
2022-09-27T20:48:06.927Z,76.09
2022-09-27T20:51:15.419Z,76.16
2022-09-27T20:54:21.536Z,76.09
2022-09-27T20:57:46.221Z,76.18
2022-09-27T21:00:52.799Z,76.25
2022-09-27T21:04:00.379Z,76.24
2022-09-27T21:07:06.518Z,76.24
2022-09-27T21:10:11.363Z,76.41
2022-09-27T21:13:18.103Z,76.52
2022-09-27T21:16:26.094Z,76.59
2022-09-27T21:19:32.329Z,76.56
2022-09-27T21:22:36.806Z,76.56
2022-09-27T21:25:43.023Z,76.74
2022-09-27T21:28:48.526Z,76.71
2022-09-27T21:31:54.741Z,76.90
2022-09-27T21:35:01.132Z,77.01
2022-09-27T21:38:07.338Z,76.95
2022-09-27T21:41:14.787Z,76.99
2022-09-27T21:44:20.957Z,77.02
2022-09-27T21:47:25.414Z,77.02
2022-09-27T21:50:32.114Z,77.24
2022-09-27T21:53:39.625Z,77.18
2022-09-27T21:56:46.693Z,77.25
2022-09-27T21:59:52.835Z,77.26
2022-09-27T22:02:59.800Z,77.34
2022-09-27T22:06:07.279Z,77.52
2022-09-27T22:09:17.179Z,77.41
2022-09-27T22:12:23.449Z,77.54
2022-09-27T22:15:29.614Z,77.49
2022-09-27T22:18:35.450Z,77.52
2022-09-27T22:21:40.069Z,77.69
2022-09-27T22:24:46.167Z,77.78
2022-09-27T22:27:50.845Z,77.56
2022-09-27T22:30:57.306Z,77.82
2022-09-27T22:34:04.730Z,77.78
2022-09-27T22:37:10.877Z,77.73
2022-09-27T22:40:15.502Z,77.92
2022-09-27T22:43:21.751Z,77.89
2022-09-27T22:46:26.536Z,77.93
2022-09-27T22:49:32.690Z,78.00
2022-09-27T22:52:37.138Z,78.00
2022-09-27T22:55:43.498Z,78.05
2022-09-27T22:58:50.577Z,78.19
2022-09-27T23:01:56.718Z,78.08
2022-09-27T23:05:01.148Z,78.23
2022-09-27T23:08:07.294Z,78.24
2022-09-27T23:11:12.694Z,78.26
2022-09-27T23:14:21.692Z,78.41
2022-09-27T23:17:27.645Z,78.41
2022-09-27T23:20:33.702Z,78.46
2022-09-27T23:23:42.061Z,78.44
2022-09-27T23:27:09.287Z,78.56
2022-09-27T23:30:17.408Z,78.51
2022-09-27T23:33:23.589Z,78.49
2022-09-27T23:36:28.266Z,78.69
2022-09-27T23:39:34.359Z,78.73
2022-09-27T23:42:38.800Z,78.77
2022-09-27T23:45:45.155Z,78.74
2022-09-27T23:48:51.230Z,78.71
2022-09-27T23:51:57.620Z,78.83
2022-09-27T23:55:03.949Z,78.81
2022-09-27T23:58:10.694Z,78.76
